Terminal Aerodrome Forecast
Issued by NWS

Home | Current Version | Previous Version | Text Only | Print | Product List | Glossary On
Versions: 1 2 3 4 5 6 7 8 9 10 11 12 13 14 15 16 17 18 19 20 21 22 23 24 25 26 27 28 29 30 31 32 33 34 35 36 37 38
000
FTUS41 KBOX 022329
TAFFMH
TAF
KFMH 022329Z 0300/0324 22010KT P6SM SKC
     FM030300 21010KT 3SM BR SCT150
     FM030600 22010KT 3SM BR SCT003
     FM030800 22010KT 3SM BR BKN040
     FM031000 24009KT 1SM BR SCT030
     FM031200 32007KT P6SM SCT250
     FM032200 VRB03KT P6SM SKC=

USA.gov is the U.S. government's official web portal to all federal, state and local government web resources and services.